sensor_id;sensor_type;location;lat;lon;timestamp;temperature;humidity
13880;DHT22;7010;48.200;16.332;2022-07-09T00:01:07;16.10;99.90
13880;DHT22;7010;48.200;16.332;2022-07-09T00:03:35;16.10;99.90
13880;DHT22;7010;48.200;16.332;2022-07-09T00:06:03;16.10;99.90
13880;DHT22;7010;48.200;16.332;2022-07-09T00:08:33;16.10;99.90
13880;DHT22;7010;48.200;16.332;2022-07-09T00:11:02;16.10;99.90
13880;DHT22;7010;48.200;16.332;2022-07-09T00:13:31;16.00;99.90
13880;DHT22;7010;48.200;16.332;2022-07-09T00:15:59;16.10;99.90
13880;DHT22;7010;48.200;16.332;2022-07-09T00:18:27;16.10;99.90
13880;DHT22;7010;48.200;16.332;2022-07-09T00:20:56;16.00;99.90
13880;DHT22;7010;48.200;16.332;2022-07-09T00:23:25;16.00;99.90
13880;DHT22;7010;48.200;16.332;2022-07-09T00:25:55;16.10;99.90
13880;DHT22;7010;48.200;16.332;2022-07-09T00:28:23;16.10;99.90
13880;DHT22;7010;48.200;16.332;2022-07-09T00:30:51;16.10;99.90
13880;DHT22;7010;48.200;16.332;2022-07-09T00:33:19;16.20;99.90
13880;DHT22;7010;48.200;16.332;2022-07-09T00:35:47;16.20;99.90
13880;DHT22;7010;48.200;16.332;2022-07-09T00:38:16;16.20;99.90
13880;DHT22;7010;48.200;16.332;2022-07-09T00:40:44;16.30;99.90
13880;DHT22;7010;48.200;16.332;2022-07-09T00:43:18;16.30;99.90
13880;DHT22;7010;48.200;16.332;2022-07-09T00:45:47;16.30;99.90
13880;DHT22;7010;48.200;16.332;2022-07-09T00:48:15;16.40;99.90
13880;DHT22;7010;48.200;16.332;2022-07-09T00:50:47;16.40;99.90
13880;DHT22;7010;48.200;16.332;2022-07-09T00:53:16;16.40;99.90
13880;DHT22;7010;48.200;16.332;2022-07-09T00:55:46;16.40;99.90
13880;DHT22;7010;48.200;16.332;2022-07-09T00:58:17;16.40;99.90
13880;DHT22;7010;48.200;16.332;2022-07-09T01:00:45;16.40;99.90
13880;DHT22;7010;48.200;16.332;2022-07-09T01:03:14;16.40;99.90
13880;DHT22;7010;48.200;16.332;2022-07-09T01:05:42;16.30;99.90
13880;DHT22;7010;48.200;16.332;2022-07-09T01:08:11;16.30;99.90
13880;DHT22;7010;48.200;16.332;2022-07-09T01:10:40;16.20;99.90
13880;DHT22;7010;48.200;16.332;2022-07-09T01:13:08;16.20;99.90
13880;DHT22;7010;48.200;16.332;2022-07-09T01:15:39;16.20;99.90
13880;DHT22;7010;48.200;16.332;2022-07-09T01:18:10;16.10;99.90
13880;DHT22;7010;48.200;16.332;2022-07-09T01:20:40;16.10;99.90
13880;DHT22;7010;48.200;16.332;2022-07-09T01:23:08;16.10;99.90
13880;DHT22;7010;48.200;16.332;2022-07-09T01:25:37;16.00;99.90
13880;DHT22;7010;48.200;16.332;2022-07-09T01:28:07;16.00;99.90
13880;DHT22;7010;48.200;16.332;2022-07-09T01:30:38;16.00;99.90
13880;DHT22;7010;48.200;16.332;2022-07-09T01:33:06;16.00;99.90
13880;DHT22;7010;48.200;16.332;2022-07-09T01:35:35;16.00;99.90
13880;DHT22;7010;48.200;16.332;2022-07-09T01:38:04;16.00;99.90
13880;DHT22;7010;48.200;16.332;2022-07-09T01:40:33;16.00;99.90
13880;DHT22;7010;48.200;16.332;2022-07-09T01:43:01;15.90;99.90
13880;DHT22;7010;48.200;16.332;2022-07-09T01:45:29;15.90;99.90
13880;DHT22;7010;48.200;16.332;2022-07-09T01:47:58;15.90;99.90
13880;DHT22;7010;48.200;16.332;2022-07-09T01:50:26;15.90;99.90
13880;DHT22;7010;48.200;16.332;2022-07-09T01:52:54;15.90;99.90
13880;DHT22;7010;48.200;16.332;2022-07-09T01:55:24;15.80;99.90
13880;DHT22;7010;48.200;16.332;2022-07-09T01:57:52;15.80;99.90
13880;DHT22;7010;48.200;16.332;2022-07-09T02:00:21;15.80;99.90
13880;DHT22;7010;48.200;16.332;2022-07-09T02:02:50;15.70;99.90
13880;DHT22;7010;48.200;16.332;2022-07-09T02:05:18;15.70;99.90
13880;DHT22;7010;48.200;16.332;2022-07-09T02:07:47;15.70;99.90
13880;DHT22;7010;48.200;16.332;2022-07-09T02:10:15;15.70;99.90
13880;DHT22;7010;48.200;16.332;2022-07-09T02:12:45;15.60;99.90
13880;DHT22;7010;48.200;16.332;2022-07-09T02:15:13;15.60;99.90
13880;DHT22;7010;48.200;16.332;2022-07-09T02:17:41;15.60;99.90
13880;DHT22;7010;48.200;16.332;2022-07-09T02:20:10;15.60;99.90
13880;DHT22;7010;48.200;16.332;2022-07-09T02:22:38;15.60;99.90
13880;DHT22;7010;48.200;16.332;2022-07-09T02:25:08;15.60;99.90
13880;DHT22;7010;48.200;16.332;2022-07-09T02:27:36;15.60;99.90
13880;DHT22;7010;48.200;16.332;2022-07-09T02:30:07;15.60;99.90
13880;DHT22;7010;48.200;16.332;2022-07-09T02:32:35;15.60;99.90
13880;DHT22;7010;48.200;16.332;2022-07-09T02:35:06;15.60;99.90
13880;DHT22;7010;48.200;16.332;2022-07-09T02:37:34;15.70;99.90
13880;DHT22;7010;48.200;16.332;2022-07-09T02:40:03;15.70;99.90
13880;DHT22;7010;48.200;16.332;2022-07-09T02:42:32;15.70;99.90
13880;DHT22;7010;48.200;16.332;2022-07-09T02:45:01;15.80;99.90
13880;DHT22;7010;48.200;16.332;2022-07-09T02:47:31;15.90;99.90
13880;DHT22;7010;48.200;16.332;2022-07-09T02:49:59;15.90;99.90
13880;DHT22;7010;48.200;16.332;2022-07-09T02:52:28;15.90;99.90
13880;DHT22;7010;48.200;16.332;2022-07-09T02:54:56;16.00;99.90
13880;DHT22;7010;48.200;16.332;2022-07-09T02:57:24;16.00;99.90
13880;DHT22;7010;48.200;16.332;2022-07-09T02:59:52;16.00;99.90
13880;DHT22;7010;48.200;16.332;2022-07-09T03:02:20;16.10;99.90
13880;DHT22;7010;48.200;16.332;2022-07-09T03:04:51;16.10;99.90
13880;DHT22;7010;48.200;16.332;2022-07-09T03:07:19;16.10;99.90
13880;DHT22;7010;48.200;16.332;2022-07-09T03:09:47;16.10;99.90
13880;DHT22;7010;48.200;16.332;2022-07-09T03:12:16;16.20;99.90
13880;DHT22;7010;48.200;16.332;2022-07-09T03:14:45;16.20;99.90
13880;DHT22;7010;48.200;16.332;2022-07-09T03:17:13;16.20;99.90
13880;DHT22;7010;48.200;16.332;2022-07-09T03:19:41;16.20;99.90
13880;DHT22;7010;48.200;16.332;2022-07-09T03:22:11;16.20;99.90
13880;DHT22;7010;48.200;16.332;2022-07-09T03:24:40;16.30;99.90
13880;DHT22;7010;48.200;16.332;2022-07-09T03:27:08;16.30;99.90
13880;DHT22;7010;48.200;16.332;2022-07-09T03:29:37;16.30;99.90
13880;DHT22;7010;48.200;16.332;2022-07-09T03:32:06;16.30;99.90
13880;DHT22;7010;48.200;16.332;2022-07-09T03:34:34;16.30;99.90
13880;DHT22;7010;48.200;16.332;2022-07-09T03:37:03;16.30;99.90
13880;DHT22;7010;48.200;16.332;2022-07-09T03:39:33;16.30;99.90
13880;DHT22;7010;48.200;16.332;2022-07-09T03:42:03;16.30;99.90
13880;DHT22;7010;48.200;16.332;2022-07-09T03:44:33;16.40;99.90
13880;DHT22;7010;48.200;16.332;2022-07-09T03:47:01;16.40;99.90
13880;DHT22;7010;48.200;16.332;2022-07-09T03:49:29;16.40;99.90
13880;DHT22;7010;48.200;16.332;2022-07-09T03:51:58;16.40;99.90
13880;DHT22;7010;48.200;16.332;2022-07-09T03:54:48;16.40;99.90
13880;DHT22;7010;48.200;16.332;2022-07-09T03:57:16;16.50;99.90
13880;DHT22;7010;48.200;16.332;2022-07-09T03:59:44;16.50;99.90
13880;DHT22;7010;48.200;16.332;2022-07-09T04:02:12;16.50;99.90
13880;DHT22;7010;48.200;16.332;2022-07-09T04:04:41;16.50;99.90
13880;DHT22;7010;48.200;16.332;2022-07-09T04:07:10;16.50;99.90
13880;DHT22;7010;48.200;16.332;2022-07-09T04:09:38;16.50;99.90
13880;DHT22;7010;48.200;16.332;2022-07-09T04:12:08;16.60;99.90
13880;DHT22;7010;48.200;16.332;2022-07-09T04:14:36;16.60;99.90
13880;DHT22;7010;48.200;16.332;2022-07-09T04:17:05;16.60;99.90
13880;DHT22;7010;48.200;16.332;2022-07-09T04:19:34;16.70;99.90
13880;DHT22;7010;48.200;16.332;2022-07-09T04:22:03;16.70;99.90
13880;DHT22;7010;48.200;16.332;2022-07-09T04:24:31;16.70;99.90
13880;DHT22;7010;48.200;16.332;2022-07-09T04:26:59;16.70;99.90
13880;DHT22;7010;48.200;16.332;2022-07-09T04:29:29;16.80;99.90
13880;DHT22;7010;48.200;16.332;2022-07-09T04:31:57;16.90;99.90
13880;DHT22;7010;48.200;16.332;2022-07-09T04:34:25;16.90;99.90
13880;DHT22;7010;48.200;16.332;2022-07-09T04:36:54;16.90;99.90
13880;DHT22;7010;48.200;16.332;2022-07-09T04:39:22;17.00;99.90
13880;DHT22;7010;48.200;16.332;2022-07-09T04:41:51;17.00;99.90
13880;DHT22;7010;48.200;16.332;2022-07-09T04:44:19;17.00;99.90
13880;DHT22;7010;48.200;16.332;2022-07-09T04:46:49;17.00;99.90
13880;DHT22;7010;48.200;16.332;2022-07-09T04:49:17;17.00;99.90
13880;DHT22;7010;48.200;16.332;2022-07-09T04:51:47;17.00;99.90
13880;DHT22;7010;48.200;16.332;2022-07-09T04:54:16;17.00;99.90
13880;DHT22;7010;48.200;16.332;2022-07-09T04:56:44;17.00;99.90
13880;DHT22;7010;48.200;16.332;2022-07-09T04:59:12;16.90;99.90
13880;DHT22;7010;48.200;16.332;2022-07-09T05:01:40;16.80;99.90
13880;DHT22;7010;48.200;16.332;2022-07-09T05:04:10;16.80;99.90
13880;DHT22;7010;48.200;16.332;2022-07-09T05:06:38;16.80;99.90
13880;DHT22;7010;48.200;16.332;2022-07-09T05:09:06;16.80;99.90
13880;DHT22;7010;48.200;16.332;2022-07-09T05:11:35;16.80;99.90
13880;DHT22;7010;48.200;16.332;2022-07-09T05:14:03;16.80;99.90
13880;DHT22;7010;48.200;16.332;2022-07-09T05:16:31;16.80;99.90
13880;DHT22;7010;48.200;16.332;2022-07-09T05:19:00;16.80;99.90
13880;DHT22;7010;48.200;16.332;2022-07-09T05:21:30;16.90;99.90
13880;DHT22;7010;48.200;16.332;2022-07-09T05:23:58;16.90;99.90
13880;DHT22;7010;48.200;16.332;2022-07-09T05:26:28;16.90;99.90
13880;DHT22;7010;48.200;16.332;2022-07-09T05:28:56;16.90;99.90
13880;DHT22;7010;48.200;16.332;2022-07-09T05:31:24;17.00;99.90
13880;DHT22;7010;48.200;16.332;2022-07-09T05:34:01;17.00;99.90
13880;DHT22;7010;48.200;16.332;2022-07-09T05:36:31;17.00;99.90
13880;DHT22;7010;48.200;16.332;2022-07-09T05:39:00;17.10;99.90
13880;DHT22;7010;48.200;16.332;2022-07-09T05:41:28;17.20;99.90
13880;DHT22;7010;48.200;16.332;2022-07-09T05:43:56;17.40;99.90
13880;DHT22;7010;48.200;16.332;2022-07-09T05:46:25;17.50;99.90
13880;DHT22;7010;48.200;16.332;2022-07-09T05:48:53;17.80;99.90
13880;DHT22;7010;48.200;16.332;2022-07-09T05:51:22;17.80;99.90
13880;DHT22;7010;48.200;16.332;2022-07-09T05:53:52;17.90;99.90
13880;DHT22;7010;48.200;16.332;2022-07-09T05:56:20;17.90;99.90
13880;DHT22;7010;48.200;16.332;2022-07-09T05:58:49;17.90;99.90
13880;DHT22;7010;48.200;16.332;2022-07-09T06:01:17;17.80;99.90
13880;DHT22;7010;48.200;16.332;2022-07-09T06:03:52;17.80;99.90
13880;DHT22;7010;48.200;16.332;2022-07-09T06:06:21;17.80;99.90
13880;DHT22;7010;48.200;16.332;2022-07-09T06:08:49;17.90;99.90
13880;DHT22;7010;48.200;16.332;2022-07-09T06:11:19;17.80;99.90
13880;DHT22;7010;48.200;16.332;2022-07-09T06:13:47;17.80;99.90
13880;DHT22;7010;48.200;16.332;2022-07-09T06:16:15;17.80;99.90
13880;DHT22;7010;48.200;16.332;2022-07-09T06:18:44;17.90;99.90
13880;DHT22;7010;48.200;16.332;2022-07-09T06:21:12;18.00;99.90
13880;DHT22;7010;48.200;16.332;2022-07-09T06:23:40;18.10;99.90
13880;DHT22;7010;48.200;16.332;2022-07-09T06:26:09;18.10;99.90
13880;DHT22;7010;48.200;16.332;2022-07-09T06:28:38;18.20;99.90
13880;DHT22;7010;48.200;16.332;2022-07-09T06:31:07;18.30;99.90
13880;DHT22;7010;48.200;16.332;2022-07-09T06:33:35;18.30;99.90
13880;DHT22;7010;48.200;16.332;2022-07-09T06:36:04;18.30;99.90
13880;DHT22;7010;48.200;16.332;2022-07-09T06:38:32;18.40;99.90
13880;DHT22;7010;48.200;16.332;2022-07-09T06:41:20;18.50;99.90
13880;DHT22;7010;48.200;16.332;2022-07-09T06:43:50;18.60;99.90
13880;DHT22;7010;48.200;16.332;2022-07-09T06:46:19;18.80;99.90
13880;DHT22;7010;48.200;16.332;2022-07-09T06:48:47;18.80;99.90
13880;DHT22;7010;48.200;16.332;2022-07-09T06:51:16;19.00;99.90
13880;DHT22;7010;48.200;16.332;2022-07-09T06:53:44;19.00;99.90
13880;DHT22;7010;48.200;16.332;2022-07-09T06:56:12;19.20;99.90
13880;DHT22;7010;48.200;16.332;2022-07-09T06:58:40;19.20;99.90
13880;DHT22;7010;48.200;16.332;2022-07-09T07:01:10;19.50;99.90
13880;DHT22;7010;48.200;16.332;2022-07-09T07:03:39;19.70;99.90
13880;DHT22;7010;48.200;16.332;2022-07-09T07:06:07;19.80;99.90
13880;DHT22;7010;48.200;16.332;2022-07-09T07:08:35;19.80;99.90
13880;DHT22;7010;48.200;16.332;2022-07-09T07:11:04;20.10;99.90
13880;DHT22;7010;48.200;16.332;2022-07-09T07:13:32;20.30;99.90
13880;DHT22;7010;48.200;16.332;2022-07-09T07:16:00;20.40;99.90
13880;DHT22;7010;48.200;16.332;2022-07-09T07:18:30;20.40;99.90
13880;DHT22;7010;48.200;16.332;2022-07-09T07:20:59;20.50;99.90
13880;DHT22;7010;48.200;16.332;2022-07-09T07:23:27;20.90;99.90
13880;DHT22;7010;48.200;16.332;2022-07-09T07:25:58;21.40;99.90
13880;DHT22;7010;48.200;16.332;2022-07-09T07:28:26;21.40;99.90
13880;DHT22;7010;48.200;16.332;2022-07-09T07:30:55;21.10;99.90
13880;DHT22;7010;48.200;16.332;2022-07-09T07:33:23;21.80;99.90
13880;DHT22;7010;48.200;16.332;2022-07-09T07:35:53;22.00;99.90
13880;DHT22;7010;48.200;16.332;2022-07-09T07:38:21;22.00;99.90
13880;DHT22;7010;48.200;16.332;2022-07-09T07:40:49;21.90;99.90
13880;DHT22;7010;48.200;16.332;2022-07-09T07:43:17;21.70;99.90
13880;DHT22;7010;48.200;16.332;2022-07-09T07:45:46;22.70;99.90
13880;DHT22;7010;48.200;16.332;2022-07-09T07:48:14;23.90;99.90
13880;DHT22;7010;48.200;16.332;2022-07-09T07:50:42;24.30;99.90
13880;DHT22;7010;48.200;16.332;2022-07-09T07:53:12;24.80;99.90
13880;DHT22;7010;48.200;16.332;2022-07-09T07:55:40;24.70;99.90
13880;DHT22;7010;48.200;16.332;2022-07-09T07:58:09;24.10;99.90
13880;DHT22;7010;48.200;16.332;2022-07-09T08:00:37;23.40;99.90
13880;DHT22;7010;48.200;16.332;2022-07-09T08:03:05;23.70;99.90
13880;DHT22;7010;48.200;16.332;2022-07-09T08:05:33;24.70;99.90
13880;DHT22;7010;48.200;16.332;2022-07-09T08:08:02;25.30;99.50
13880;DHT22;7010;48.200;16.332;2022-07-09T08:10:32;24.80;98.90
13880;DHT22;7010;48.200;16.332;2022-07-09T08:13:02;24.80;99.10
13880;DHT22;7010;48.200;16.332;2022-07-09T08:15:30;24.90;99.80
13880;DHT22;7010;48.200;16.332;2022-07-09T08:17:58;25.10;99.20
13880;DHT22;7010;48.200;16.332;2022-07-09T08:20:27;25.70;98.90
13880;DHT22;7010;48.200;16.332;2022-07-09T08:22:55;26.30;98.60
13880;DHT22;7010;48.200;16.332;2022-07-09T08:25:24;26.80;97.40
13880;DHT22;7010;48.200;16.332;2022-07-09T08:27:54;27.80;95.30
13880;DHT22;7010;48.200;16.332;2022-07-09T08:30:22;28.20;94.70
13880;DHT22;7010;48.200;16.332;2022-07-09T08:32:50;27.40;93.00
13880;DHT22;7010;48.200;16.332;2022-07-09T08:35:18;27.50;92.80
13880;DHT22;7010;48.200;16.332;2022-07-09T08:37:47;28.30;92.40
13880;DHT22;7010;48.200;16.332;2022-07-09T08:40:15;28.90;90.60
13880;DHT22;7010;48.200;16.332;2022-07-09T08:42:43;29.50;89.00
13880;DHT22;7010;48.200;16.332;2022-07-09T08:45:14;30.20;87.80
13880;DHT22;7010;48.200;16.332;2022-07-09T08:47:44;30.60;85.80
13880;DHT22;7010;48.200;16.332;2022-07-09T08:50:13;29.50;81.40
13880;DHT22;7010;48.200;16.332;2022-07-09T08:52:41;27.40;84.50
13880;DHT22;7010;48.200;16.332;2022-07-09T08:55:10;25.40;88.30
13880;DHT22;7010;48.200;16.332;2022-07-09T08:57:38;25.40;90.60
13880;DHT22;7010;48.200;16.332;2022-07-09T09:00:07;26.50;89.70
13880;DHT22;7010;48.200;16.332;2022-07-09T09:02:38;27.60;86.70
13880;DHT22;7010;48.200;16.332;2022-07-09T09:05:11;28.60;84.80
13880;DHT22;7010;48.200;16.332;2022-07-09T09:07:39;28.60;82.60
13880;DHT22;7010;48.200;16.332;2022-07-09T09:10:08;29.40;81.40
13880;DHT22;7010;48.200;16.332;2022-07-09T09:12:47;29.70;78.00
13880;DHT22;7010;48.200;16.332;2022-07-09T09:15:17;29.70;77.40
13880;DHT22;7010;48.200;16.332;2022-07-09T09:17:48;29.20;77.90
13880;DHT22;7010;48.200;16.332;2022-07-09T09:20:17;29.20;77.00
13880;DHT22;7010;48.200;16.332;2022-07-09T09:22:47;29.70;76.20
13880;DHT22;7010;48.200;16.332;2022-07-09T09:25:17;29.80;74.20
13880;DHT22;7010;48.200;16.332;2022-07-09T09:27:50;29.30;74.10
13880;DHT22;7010;48.200;16.332;2022-07-09T09:30:19;27.10;77.50
13880;DHT22;7010;48.200;16.332;2022-07-09T09:32:59;25.40;82.00
13880;DHT22;7010;48.200;16.332;2022-07-09T09:35:29;24.70;84.40
13880;DHT22;7010;48.200;16.332;2022-07-09T09:37:57;23.90;87.40
13880;DHT22;7010;48.200;16.332;2022-07-09T09:40:26;24.30;86.50
13880;DHT22;7010;48.200;16.332;2022-07-09T09:42:54;25.20;86.00
13880;DHT22;7010;48.200;16.332;2022-07-09T09:45:26;26.40;82.80
13880;DHT22;7010;48.200;16.332;2022-07-09T09:47:58;27.10;80.70
13880;DHT22;7010;48.200;16.332;2022-07-09T09:50:27;26.80;81.30
13880;DHT22;7010;48.200;16.332;2022-07-09T09:52:55;26.40;79.60
13880;DHT22;7010;48.200;16.332;2022-07-09T09:55:24;25.60;79.70
13880;DHT22;7010;48.200;16.332;2022-07-09T09:57:53;25.30;80.90
13880;DHT22;7010;48.200;16.332;2022-07-09T10:00:22;24.50;82.60
13880;DHT22;7010;48.200;16.332;2022-07-09T10:02:52;24.50;83.70
13880;DHT22;7010;48.200;16.332;2022-07-09T10:05:22;24.80;82.90
13880;DHT22;7010;48.200;16.332;2022-07-09T10:07:50;25.80;81.20
13880;DHT22;7010;48.200;16.332;2022-07-09T10:10:19;26.90;79.10
13880;DHT22;7010;48.200;16.332;2022-07-09T10:12:48;27.20;77.90
13880;DHT22;7010;48.200;16.332;2022-07-09T10:15:21;27.10;77.60
13880;DHT22;7010;48.200;16.332;2022-07-09T10:17:49;27.00;77.20
13880;DHT22;7010;48.200;16.332;2022-07-09T10:20:31;27.90;76.90
13880;DHT22;7010;48.200;16.332;2022-07-09T10:23:02;28.90;73.90
13880;DHT22;7010;48.200;16.332;2022-07-09T10:25:37;29.40;72.90
13880;DHT22;7010;48.200;16.332;2022-07-09T10:28:15;29.70;72.60
13880;DHT22;7010;48.200;16.332;2022-07-09T10:30:43;29.30;71.80
13880;DHT22;7010;48.200;16.332;2022-07-09T10:33:13;28.70;71.40
13880;DHT22;7010;48.200;16.332;2022-07-09T10:35:44;28.70;72.90
13880;DHT22;7010;48.200;16.332;2022-07-09T10:38:14;28.40;72.70
13880;DHT22;7010;48.200;16.332;2022-07-09T10:40:43;27.20;73.30
13880;DHT22;7010;48.200;16.332;2022-07-09T10:43:12;26.60;75.30
13880;DHT22;7010;48.200;16.332;2022-07-09T10:45:41;26.60;76.10
13880;DHT22;7010;48.200;16.332;2022-07-09T10:48:13;27.30;76.90
13880;DHT22;7010;48.200;16.332;2022-07-09T10:50:45;27.90;73.80
13880;DHT22;7010;48.200;16.332;2022-07-09T10:53:14;28.20;73.20
13880;DHT22;7010;48.200;16.332;2022-07-09T10:55:44;28.40;73.10
13880;DHT22;7010;48.200;16.332;2022-07-09T10:58:16;28.90;72.00
13880;DHT22;7010;48.200;16.332;2022-07-09T11:00:44;29.70;72.20
13880;DHT22;7010;48.200;16.332;2022-07-09T11:03:13;30.40;70.30
13880;DHT22;7010;48.200;16.332;2022-07-09T11:05:45;30.40;69.10
13880;DHT22;7010;48.200;16.332;2022-07-09T11:08:14;29.80;69.60
13880;DHT22;7010;48.200;16.332;2022-07-09T11:10:42;29.50;70.10
13880;DHT22;7010;48.200;16.332;2022-07-09T11:13:16;29.50;70.60
13880;DHT22;7010;48.200;16.332;2022-07-09T11:15:45;30.00;71.30
13880;DHT22;7010;48.200;16.332;2022-07-09T11:18:13;30.50;70.00
13880;DHT22;7010;48.200;16.332;2022-07-09T11:20:42;30.40;69.40
13880;DHT22;7010;48.200;16.332;2022-07-09T11:23:14;30.10;69.50
13880;DHT22;7010;48.200;16.332;2022-07-09T11:25:43;29.70;70.10
13880;DHT22;7010;48.200;16.332;2022-07-09T11:28:18;29.70;70.30
13880;DHT22;7010;48.200;16.332;2022-07-09T11:30:57;29.60;70.30
13880;DHT22;7010;48.200;16.332;2022-07-09T11:33:26;29.30;70.90
13880;DHT22;7010;48.200;16.332;2022-07-09T11:36:00;29.00;70.40
13880;DHT22;7010;48.200;16.332;2022-07-09T11:38:30;28.80;70.90
13880;DHT22;7010;48.200;16.332;2022-07-09T11:41:00;29.00;71.00
13880;DHT22;7010;48.200;16.332;2022-07-09T11:43:28;29.50;72.10
13880;DHT22;7010;48.200;16.332;2022-07-09T11:45:56;29.90;68.60
13880;DHT22;7010;48.200;16.332;2022-07-09T11:48:25;30.20;69.50
13880;DHT22;7010;48.200;16.332;2022-07-09T11:50:53;30.40;67.40
13880;DHT22;7010;48.200;16.332;2022-07-09T11:53:22;30.70;67.40
13880;DHT22;7010;48.200;16.332;2022-07-09T11:56:02;30.50;67.10
13880;DHT22;7010;48.200;16.332;2022-07-09T11:58:31;30.10;67.40
13880;DHT22;7010;48.200;16.332;2022-07-09T12:00:59;30.10;67.80
13880;DHT22;7010;48.200;16.332;2022-07-09T12:03:29;30.00;66.10
13880;DHT22;7010;48.200;16.332;2022-07-09T12:05:58;30.30;66.20
13880;DHT22;7010;48.200;16.332;2022-07-09T12:08:27;29.80;67.00
13880;DHT22;7010;48.200;16.332;2022-07-09T12:10:57;30.30;66.80
13880;DHT22;7010;48.200;16.332;2022-07-09T12:13:27;30.30;66.40
13880;DHT22;7010;48.200;16.332;2022-07-09T12:15:56;30.40;66.10
13880;DHT22;7010;48.200;16.332;2022-07-09T12:18:25;30.40;66.80
13880;DHT22;7010;48.200;16.332;2022-07-09T12:20:54;30.00;65.90
13880;DHT22;7010;48.200;16.332;2022-07-09T12:23:23;30.30;65.20
13880;DHT22;7010;48.200;16.332;2022-07-09T12:25:51;29.90;65.00
13880;DHT22;7010;48.200;16.332;2022-07-09T12:28:19;29.70;65.30
13880;DHT22;7010;48.200;16.332;2022-07-09T12:30:49;29.90;65.40
13880;DHT22;7010;48.200;16.332;2022-07-09T12:33:17;30.00;64.10
13880;DHT22;7010;48.200;16.332;2022-07-09T12:35:46;30.00;64.30
13880;DHT22;7010;48.200;16.332;2022-07-09T12:38:14;29.90;64.80
13880;DHT22;7010;48.200;16.332;2022-07-09T12:40:42;30.00;64.90
13880;DHT22;7010;48.200;16.332;2022-07-09T12:43:11;30.30;63.40
13880;DHT22;7010;48.200;16.332;2022-07-09T12:45:39;30.10;63.30
13880;DHT22;7010;48.200;16.332;2022-07-09T12:48:10;29.30;64.40
13880;DHT22;7010;48.200;16.332;2022-07-09T12:50:38;29.10;65.20
13880;DHT22;7010;48.200;16.332;2022-07-09T12:53:06;29.10;64.00
13880;DHT22;7010;48.200;16.332;2022-07-09T12:55:34;29.10;64.00
13880;DHT22;7010;48.200;16.332;2022-07-09T12:58:23;29.00;63.10
13880;DHT22;7010;48.200;16.332;2022-07-09T13:00:51;29.00;63.60
13880;DHT22;7010;48.200;16.332;2022-07-09T13:03:21;28.40;63.00
13880;DHT22;7010;48.200;16.332;2022-07-09T13:05:49;28.40;64.60
13880;DHT22;7010;48.200;16.332;2022-07-09T13:08:19;28.90;64.80
13880;DHT22;7010;48.200;16.332;2022-07-09T13:10:48;29.10;62.50
13880;DHT22;7010;48.200;16.332;2022-07-09T13:13:16;28.90;62.80
13880;DHT22;7010;48.200;16.332;2022-07-09T13:15:44;28.90;64.00
13880;DHT22;7010;48.200;16.332;2022-07-09T13:18:28;28.80;63.00
13880;DHT22;7010;48.200;16.332;2022-07-09T13:20:57;28.80;63.20
13880;DHT22;7010;48.200;16.332;2022-07-09T13:23:25;28.70;62.50
13880;DHT22;7010;48.200;16.332;2022-07-09T13:25:53;28.50;62.40
13880;DHT22;7010;48.200;16.332;2022-07-09T13:28:21;28.60;63.20
13880;DHT22;7010;48.200;16.332;2022-07-09T13:30:50;28.60;62.30
13880;DHT22;7010;48.200;16.332;2022-07-09T13:33:18;28.40;63.10
13880;DHT22;7010;48.200;16.332;2022-07-09T13:35:48;28.50;62.30
13880;DHT22;7010;48.200;16.332;2022-07-09T13:38:16;28.30;62.90
13880;DHT22;7010;48.200;16.332;2022-07-09T13:40:46;28.70;63.90
13880;DHT22;7010;48.200;16.332;2022-07-09T13:43:14;28.50;64.10
13880;DHT22;7010;48.200;16.332;2022-07-09T13:45:42;28.00;64.70
13880;DHT22;7010;48.200;16.332;2022-07-09T13:48:11;27.60;65.90
13880;DHT22;7010;48.200;16.332;2022-07-09T13:50:39;27.00;67.30
13880;DHT22;7010;48.200;16.332;2022-07-09T13:53:09;26.90;68.20
13880;DHT22;7010;48.200;16.332;2022-07-09T13:55:37;26.80;68.60
13880;DHT22;7010;48.200;16.332;2022-07-09T13:58:05;27.00;68.30
13880;DHT22;7010;48.200;16.332;2022-07-09T14:00:33;27.00;68.20
13880;DHT22;7010;48.200;16.332;2022-07-09T14:03:02;26.90;68.40
13880;DHT22;7010;48.200;16.332;2022-07-09T14:05:30;26.70;68.90
13880;DHT22;7010;48.200;16.332;2022-07-09T14:07:58;26.50;69.10
13880;DHT22;7010;48.200;16.332;2022-07-09T14:10:28;26.40;68.70
13880;DHT22;7010;48.200;16.332;2022-07-09T14:12:57;26.30;69.30
13880;DHT22;7010;48.200;16.332;2022-07-09T14:15:25;26.20;70.40
13880;DHT22;7010;48.200;16.332;2022-07-09T14:17:54;25.90;71.10
13880;DHT22;7010;48.200;16.332;2022-07-09T14:20:22;25.80;71.60
13880;DHT22;7010;48.200;16.332;2022-07-09T14:22:51;25.70;72.80
13880;DHT22;7010;48.200;16.332;2022-07-09T14:25:19;25.30;77.40
13880;DHT22;7010;48.200;16.332;2022-07-09T14:27:49;24.90;79.60
13880;DHT22;7010;48.200;16.332;2022-07-09T14:30:17;24.60;81.00
13880;DHT22;7010;48.200;16.332;2022-07-09T14:32:46;24.40;81.90
13880;DHT22;7010;48.200;16.332;2022-07-09T14:35:14;24.30;82.40
13880;DHT22;7010;48.200;16.332;2022-07-09T14:37:42;24.10;83.50
13880;DHT22;7010;48.200;16.332;2022-07-09T14:40:11;23.90;84.20
13880;DHT22;7010;48.200;16.332;2022-07-09T14:42:40;23.80;84.50
13880;DHT22;7010;48.200;16.332;2022-07-09T14:45:10;23.40;85.20
13880;DHT22;7010;48.200;16.332;2022-07-09T14:47:38;23.20;86.00
13880;DHT22;7010;48.200;16.332;2022-07-09T14:50:07;23.20;86.50
13880;DHT22;7010;48.200;16.332;2022-07-09T14:52:35;23.20;86.70
13880;DHT22;7010;48.200;16.332;2022-07-09T14:55:04;23.30;87.10
13880;DHT22;7010;48.200;16.332;2022-07-09T14:57:32;23.20;87.10
13880;DHT22;7010;48.200;16.332;2022-07-09T15:00:01;23.20;87.40
13880;DHT22;7010;48.200;16.332;2022-07-09T15:02:31;23.10;87.80
13880;DHT22;7010;48.200;16.332;2022-07-09T15:05:00;23.00;88.00
13880;DHT22;7010;48.200;16.332;2022-07-09T15:07:28;22.90;88.60
13880;DHT22;7010;48.200;16.332;2022-07-09T15:09:56;22.90;88.80
13880;DHT22;7010;48.200;16.332;2022-07-09T15:12:25;23.00;89.00
13880;DHT22;7010;48.200;16.332;2022-07-09T15:14:53;23.30;89.10
13880;DHT22;7010;48.200;16.332;2022-07-09T15:17:21;23.50;88.60
13880;DHT22;7010;48.200;16.332;2022-07-09T15:19:51;23.80;88.60
13880;DHT22;7010;48.200;16.332;2022-07-09T15:22:20;24.00;88.00
13880;DHT22;7010;48.200;16.332;2022-07-09T15:24:48;24.20;88.00
13880;DHT22;7010;48.200;16.332;2022-07-09T15:27:16;24.10;87.80
13880;DHT22;7010;48.200;16.332;2022-07-09T15:29:45;23.90;87.70
13880;DHT22;7010;48.200;16.332;2022-07-09T15:32:13;23.70;87.30
13880;DHT22;7010;48.200;16.332;2022-07-09T15:34:42;23.70;88.30
13880;DHT22;7010;48.200;16.332;2022-07-09T15:37:13;23.80;87.90
13880;DHT22;7010;48.200;16.332;2022-07-09T15:39:41;24.10;87.10
13880;DHT22;7010;48.200;16.332;2022-07-09T15:42:10;24.20;86.70